Accueil
METAR-TAF:

METAR-TAF

Aéroports :

Aéroport international d'Exeter

Exeter, Angleterre

latitude: 50-44N, longitude: 003-25W, altitude: 30 m

Observation

Le bulletin a été fait il y a 39 minutes, à 18:20 UTC
Vent 8 kt de nord-ouest
Température 12°C
Humidité 67%
Pression 1033 hPa
Visibilité 10 km ou plus
pas de nuages en-dessous de 1500 mètres et pas de cumulonimbus.

METAR: EGTE 261820Z 31008KT CAVOK 12/06 Q1033

Heure: 18:59 (18:59 UTC)

Prévision

Le bulletin a été fait il y a 2 heures et 1 minutes, à 16:58 UTC
Prévision valable du 26 à 18 UTC au 27 à 03 UTC
Vent 6 kt de sud
Visibilité 10 km ou plus
pas de nuages en-dessous de 1500 mètres et pas de cumulonimbus.
Probabilité 30% :
Temporairement
du 26 à 18 UTC au 27 à 03 UTC
Nuages fragmentés à une hauteur de 3000 ft

TAF: EGTE 261658Z 2618/2703 19006KT CAVOK PROB30 TEMPO 2618/2703 BKN030

Observations et prévisions météorologiques de plus de 4000 aéroports (messages METAR et TAF).

Les stations disponibles sont représentées par des disques jaunes et rouges sur la carte.

Passer la souris dessus pour voir le nom de la station.

Cliquer dessus pour voir les observations et prévisions météorologiques.

Pour changer de carte: cliquez sur les boutons verts avec une croix noire pour zoomer, sur le bouton vert avec un tiret pour effectuer un zoom arrière, ou sur les flèches vertes pour les cartes adjacentes.


METAR-TAF: